createdAt,value
2019-02-15T00:00:38.609Z,10.20
2019-02-15T00:03:07.466Z,10.23
2019-02-15T00:05:35.628Z,8.30
2019-02-15T00:08:03.812Z,9.95
2019-02-15T00:10:32.106Z,9.03
2019-02-15T00:13:00.145Z,10.32
2019-02-15T00:15:28.457Z,9.50
2019-02-15T00:18:16.132Z,9.83
2019-02-15T00:20:48.093Z,12.95
2019-02-15T00:23:16.809Z,9.48
2019-02-15T00:25:44.745Z,9.80
2019-02-15T00:28:12.794Z,12.20
2019-02-15T00:30:40.934Z,12.15
2019-02-15T00:33:08.954Z,8.50
2019-02-15T00:35:38.405Z,20.62
2019-02-15T00:38:06.429Z,17.67
2019-02-15T00:40:34.370Z,23.47
2019-02-15T00:43:02.301Z,22.45
2019-02-15T00:45:35.553Z,26.15
2019-02-15T00:48:07.286Z,23.20
2019-02-15T00:51:12.901Z,26.57
2019-02-15T00:53:52.129Z,23.10
2019-02-15T00:56:26.477Z,22.02
2019-02-15T00:59:14.157Z,24.80
2019-02-15T01:02:00.719Z,23.00
2019-02-15T01:04:54.318Z,17.10
2019-02-15T01:07:59.865Z,20.75
2019-02-15T01:10:32.125Z,26.12
2019-02-15T01:13:11.874Z,23.45
2019-02-15T01:15:38.893Z,15.15
2019-02-15T01:18:05.935Z,15.83
2019-02-15T01:20:33.101Z,18.90
2019-02-15T01:23:00.174Z,14.18
2019-02-15T01:25:32.294Z,13.68
2019-02-15T01:28:08.726Z,16.40
2019-02-15T01:30:55.029Z,25.95
2019-02-15T01:33:40.762Z,16.52
2019-02-15T01:36:22.090Z,9.90
2019-02-15T01:39:10.877Z,8.05
2019-02-15T01:41:58.701Z,6.80
2019-02-15T01:44:48.814Z,11.03
2019-02-15T01:47:20.490Z,9.75
2019-02-15T01:49:48.853Z,11.53
2019-02-15T01:52:17.266Z,8.85
2019-02-15T01:54:45.554Z,9.05
2019-02-15T01:57:13.683Z,15.80
2019-02-15T01:59:41.617Z,7.20
2019-02-15T02:02:09.646Z,6.15
2019-02-15T02:04:37.782Z,6.12
2019-02-15T02:07:06.262Z,6.10
2019-02-15T02:09:34.212Z,6.28
2019-02-15T02:12:02.834Z,4.85
2019-02-15T02:14:30.877Z,5.75
2019-02-15T02:16:59.026Z,6.35
2019-02-15T02:19:27.664Z,7.17
2019-02-15T02:21:56.528Z,7.55
2019-02-15T02:24:24.947Z,7.25
2019-02-15T02:26:53.469Z,6.03
2019-02-15T02:29:21.727Z,5.72
2019-02-15T02:31:50.478Z,5.25
2019-02-15T02:34:18.760Z,5.78
2019-02-15T02:36:53.546Z,5.33
2019-02-15T02:39:21.157Z,4.80
2019-02-15T02:41:48.751Z,8.28
2019-02-15T02:44:16.370Z,5.95
2019-02-15T02:46:44.989Z,9.50
2019-02-15T02:49:13.260Z,6.55
2019-02-15T02:51:41.776Z,6.40
2019-02-15T02:54:10.676Z,5.05
2019-02-15T02:56:39.203Z,4.75
2019-02-15T02:59:07.268Z,7.05
2019-02-15T03:01:35.778Z,5.22
2019-02-15T03:04:04.069Z,7.95
2019-02-15T03:06:32.625Z,4.47
2019-02-15T03:09:01.635Z,5.35
2019-02-15T03:11:29.782Z,5.05
2019-02-15T03:13:58.572Z,4.83
2019-02-15T03:16:26.835Z,4.05
2019-02-15T03:18:55.365Z,4.15
2019-02-15T03:21:23.598Z,5.58
2019-02-15T03:23:51.520Z,6.62
2019-02-15T03:26:19.841Z,4.60
2019-02-15T03:28:47.933Z,5.10
2019-02-15T03:31:15.990Z,5.80
2019-02-15T03:33:43.932Z,5.22
2019-02-15T03:36:18.916Z,4.42
2019-02-15T03:38:59.697Z,4.97
2019-02-15T03:41:28.512Z,6.35
2019-02-15T03:43:56.763Z,5.28
2019-02-15T03:46:25.190Z,6.47
2019-02-15T03:48:53.321Z,6.30
2019-02-15T03:51:21.461Z,5.20
2019-02-15T03:53:49.483Z,7.78
2019-02-15T03:56:17.405Z,5.97
2019-02-15T03:58:45.643Z,10.98
2019-02-15T04:01:14.021Z,6.90
2019-02-15T04:03:42.179Z,5.30
2019-02-15T04:06:10.622Z,5.17
2019-02-15T04:08:39.129Z,12.03
2019-02-15T04:11:07.476Z,12.15
2019-02-15T04:13:39.420Z,11.78
2019-02-15T04:16:07.598Z,13.38
2019-02-15T04:18:36.039Z,16.77
2019-02-15T04:21:04.538Z,18.12
2019-02-15T04:23:32.973Z,15.60
2019-02-15T04:26:01.165Z,16.95
2019-02-15T04:28:29.845Z,27.45
2019-02-15T04:30:58.681Z,36.60
2019-02-15T04:33:26.962Z,51.88
2019-02-15T04:35:55.260Z,63.92
2019-02-15T04:38:23.425Z,68.35
2019-02-15T04:40:51.859Z,73.15
2019-02-15T04:43:20.277Z,60.70
2019-02-15T04:45:48.800Z,47.05
2019-02-15T04:48:17.062Z,51.15
2019-02-15T04:50:45.839Z,30.90
2019-02-15T04:53:14.517Z,50.43
2019-02-15T04:55:43.216Z,43.20
2019-02-15T04:58:11.481Z,31.68
2019-02-15T05:00:40.170Z,38.23
2019-02-15T05:03:08.702Z,41.20
2019-02-15T05:05:37.241Z,41.75
2019-02-15T05:08:05.786Z,43.80
2019-02-15T05:10:34.245Z,46.05
2019-02-15T05:13:02.428Z,40.28
2019-02-15T05:15:31.694Z,37.03
2019-02-15T05:17:59.584Z,49.10
2019-02-15T05:20:27.528Z,45.63
2019-02-15T05:22:55.547Z,47.33
2019-02-15T05:25:23.466Z,41.75
2019-02-15T05:27:51.406Z,33.73
2019-02-15T05:30:19.385Z,33.15
2019-02-15T05:32:47.653Z,43.33
2019-02-15T05:35:15.660Z,35.95
2019-02-15T05:37:43.679Z,29.00
2019-02-15T05:40:11.788Z,33.80
2019-02-15T05:42:41.112Z,34.92
2019-02-15T05:45:09.217Z,30.72
2019-02-15T05:47:37.142Z,30.17
2019-02-15T05:50:05.345Z,31.70
2019-02-15T05:52:33.370Z,29.72
2019-02-15T05:55:01.501Z,28.95
2019-02-15T05:57:30.278Z,23.47
2019-02-15T05:59:58.189Z,25.45
2019-02-15T06:02:26.230Z,20.20
2019-02-15T06:04:55.050Z,20.95
2019-02-15T06:07:23.193Z,15.63
2019-02-15T06:09:51.299Z,17.75
2019-02-15T06:12:19.353Z,12.50
2019-02-15T06:14:47.396Z,15.10
2019-02-15T06:17:15.359Z,17.40
2019-02-15T06:19:43.277Z,18.20
2019-02-15T06:22:12.217Z,19.82
2019-02-15T06:24:40.644Z,17.00
2019-02-15T06:27:09.846Z,17.40
2019-02-15T06:29:38.371Z,15.20
2019-02-15T06:32:07.026Z,16.17
2019-02-15T06:34:35.961Z,12.15
2019-02-15T06:37:04.651Z,15.30
2019-02-15T06:39:33.334Z,17.52
2019-02-15T06:42:01.857Z,14.10
2019-02-15T06:44:30.281Z,10.90
2019-02-15T06:46:58.806Z,11.63
2019-02-15T06:49:27.530Z,15.50
2019-02-15T06:51:56.093Z,12.13
2019-02-15T06:54:24.415Z,11.73
2019-02-15T06:56:52.714Z,9.90
2019-02-15T06:59:33.158Z,9.55
2019-02-15T07:02:20.918Z,10.10
2019-02-15T07:05:00.923Z,11.25
2019-02-15T07:07:29.093Z,10.58
2019-02-15T07:09:57.513Z,10.80
2019-02-15T07:12:26.322Z,9.60
2019-02-15T07:14:54.384Z,7.90
2019-02-15T07:17:22.904Z,12.23
2019-02-15T07:19:51.373Z,11.33
2019-02-15T07:22:20.234Z,11.78
2019-02-15T07:24:48.412Z,10.28
2019-02-15T07:27:16.922Z,11.80
2019-02-15T07:29:45.585Z,13.72
2019-02-15T07:32:14.026Z,12.93
2019-02-15T07:34:42.474Z,9.23
2019-02-15T07:37:10.885Z,12.73
2019-02-15T07:39:39.293Z,9.30
2019-02-15T07:42:08.452Z,15.72
2019-02-15T07:44:37.194Z,14.38
2019-02-15T07:47:08.715Z,13.15
2019-02-15T07:49:37.026Z,10.80
2019-02-15T07:52:05.485Z,10.15
2019-02-15T07:54:34.005Z,13.40
2019-02-15T07:57:02.396Z,12.88
2019-02-15T07:59:32.292Z,12.98
2019-02-15T08:02:02.729Z,11.70
2019-02-15T08:04:30.701Z,9.80
2019-02-15T08:06:59.681Z,13.18
2019-02-15T08:09:27.949Z,9.63
2019-02-15T08:11:56.187Z,8.73
2019-02-15T08:14:24.642Z,14.78
2019-02-15T08:16:53.066Z,11.57
2019-02-15T08:19:21.411Z,10.08
2019-02-15T08:21:50.166Z,14.35
2019-02-15T08:24:19.245Z,24.00
2019-02-15T08:26:47.952Z,14.60
2019-02-15T08:29:16.597Z,17.50
2019-02-15T08:31:44.878Z,14.43
2019-02-15T08:34:13.329Z,19.57
2019-02-15T08:36:42.041Z,14.80
2019-02-15T08:39:10.218Z,12.75
2019-02-15T08:41:38.485Z,15.05
2019-02-15T08:44:06.665Z,20.72
2019-02-15T08:46:35.033Z,15.30
2019-02-15T08:49:03.779Z,15.45
2019-02-15T08:51:32.956Z,23.35
2019-02-15T08:54:01.284Z,11.93
2019-02-15T08:56:29.578Z,16.12
2019-02-15T08:58:57.745Z,14.28
2019-02-15T09:01:26.333Z,30.48
2019-02-15T09:03:55.521Z,29.70
2019-02-15T09:06:24.057Z,31.77
2019-02-15T09:08:52.357Z,20.47
2019-02-15T09:11:20.687Z,25.33
2019-02-15T09:13:49.584Z,26.57
2019-02-15T09:16:18.165Z,9.00
2019-02-15T09:18:46.213Z,33.10
2019-02-15T09:21:14.884Z,18.50
2019-02-15T09:23:43.349Z,11.80
2019-02-15T09:26:18.004Z,6.00
2019-02-15T09:28:48.753Z,15.00
2019-02-15T09:31:16.124Z,6.70
2019-02-15T09:33:43.409Z,2.00
2019-02-15T09:36:11.958Z,1.57
2019-02-15T09:38:40.316Z,3.70
2019-02-15T09:41:08.594Z,3.07
2019-02-15T09:43:36.674Z,1.90
2019-02-15T09:46:05.291Z,1.70
2019-02-15T09:48:33.711Z,1.50
2019-02-15T09:51:01.641Z,1.30
2019-02-15T09:53:29.925Z,2.40
2019-02-15T09:56:00.685Z,1.20
2019-02-15T09:58:29.219Z,1.20
2019-02-15T10:00:57.530Z,1.60
2019-02-15T10:03:26.206Z,1.80
2019-02-15T10:05:54.941Z,2.00
2019-02-15T10:08:24.779Z,1.43
2019-02-15T10:10:53.505Z,1.00
2019-02-15T10:13:21.794Z,2.00
2019-02-15T10:15:50.886Z,2.70
2019-02-15T10:18:19.557Z,2.20
2019-02-15T10:20:47.978Z,2.43
2019-02-15T10:23:16.349Z,1.67
2019-02-15T10:25:44.961Z,1.80
2019-02-15T10:28:13.265Z,1.17
2019-02-15T10:30:41.714Z,2.50
2019-02-15T10:33:15.481Z,1.40
2019-02-15T10:35:43.998Z,1.13
2019-02-15T10:38:12.041Z,2.03
2019-02-15T10:40:40.553Z,1.80
2019-02-15T10:43:08.822Z,3.27
2019-02-15T10:45:41.861Z,0.70
2019-02-15T10:48:10.832Z,1.80
2019-02-15T10:50:39.583Z,2.03
2019-02-15T10:53:08.228Z,0.83
2019-02-15T10:55:38.085Z,0.60
2019-02-15T10:58:08.129Z,0.70
2019-02-15T11:00:38.751Z,0.93
2019-02-15T11:03:06.917Z,1.57
2019-02-15T11:05:35.321Z,0.80
2019-02-15T11:08:03.468Z,0.77
2019-02-15T11:10:32.001Z,1.10
2019-02-15T11:13:01.105Z,0.70
2019-02-15T11:15:29.130Z,0.40
2019-02-15T11:17:57.279Z,0.60
2019-02-15T11:20:25.354Z,1.70
2019-02-15T11:22:53.371Z,2.00
2019-02-15T11:25:26.673Z,0.50
2019-02-15T11:27:54.689Z,1.27
2019-02-15T11:30:22.717Z,1.07
2019-02-15T11:32:50.701Z,2.23
2019-02-15T11:35:18.766Z,3.03
2019-02-15T11:37:49.438Z,0.50
2019-02-15T11:40:17.469Z,0.50
2019-02-15T11:42:45.526Z,0.63
2019-02-15T11:45:13.711Z,1.30
2019-02-15T11:47:42.011Z,2.30
2019-02-15T11:50:14.383Z,0.60
2019-02-15T11:52:42.441Z,0.70
2019-02-15T11:55:10.769Z,1.47
2019-02-15T11:57:38.894Z,0.40
2019-02-15T12:00:14.186Z,0.70
2019-02-15T12:02:44.244Z,2.00
2019-02-15T12:05:12.593Z,1.17
2019-02-15T12:07:41.694Z,0.90
2019-02-15T12:10:08.737Z,0.87
2019-02-15T12:12:40.517Z,0.80
2019-02-15T12:15:08.678Z,4.80
2019-02-15T12:17:36.825Z,1.10
2019-02-15T12:20:08.138Z,2.27
2019-02-15T12:22:35.157Z,0.87
2019-02-15T12:25:03.527Z,0.73
2019-02-15T12:27:31.553Z,7.40
2019-02-15T12:29:59.484Z,2.60
2019-02-15T12:32:27.570Z,1.03
2019-02-15T12:34:55.973Z,0.57
2019-02-15T12:37:28.470Z,0.70
2019-02-15T12:39:56.479Z,0.50
2019-02-15T12:42:24.647Z,0.80
2019-02-15T12:44:52.693Z,1.27
2019-02-15T12:47:20.625Z,0.77
2019-02-15T12:49:48.562Z,1.03
2019-02-15T12:52:17.790Z,3.10
2019-02-15T12:54:45.765Z,0.83
2019-02-15T12:57:13.807Z,0.60
2019-02-15T12:59:41.826Z,1.07
2019-02-15T13:02:09.989Z,0.80
2019-02-15T13:04:37.934Z,2.80
2019-02-15T13:07:06.107Z,0.93
2019-02-15T13:09:34.237Z,1.10
2019-02-15T13:12:02.252Z,0.80
2019-02-15T13:14:30.281Z,1.47
2019-02-15T13:16:58.315Z,0.70
2019-02-15T13:19:29.314Z,1.40
2019-02-15T13:21:57.293Z,0.93
2019-02-15T13:24:25.424Z,4.03
2019-02-15T13:26:53.333Z,5.70
2019-02-15T13:29:21.256Z,0.80
2019-02-15T13:31:53.415Z,1.07
2019-02-15T13:34:21.859Z,0.93
2019-02-15T13:36:50.277Z,1.00
2019-02-15T13:39:18.429Z,1.60
2019-02-15T13:41:47.002Z,0.77
2019-02-15T13:44:19.180Z,1.20
2019-02-15T13:46:47.094Z,0.60
2019-02-15T13:49:15.249Z,0.90
2019-02-15T13:51:43.219Z,2.30
2019-02-15T13:54:11.142Z,1.27
2019-02-15T13:56:40.550Z,1.53
2019-02-15T13:59:10.745Z,0.77
2019-02-15T14:01:38.674Z,0.60
2019-02-15T14:04:06.617Z,0.70
2019-02-15T14:06:34.647Z,1.77
2019-02-15T14:09:04.262Z,0.53
2019-02-15T14:11:33.537Z,1.00
2019-02-15T14:14:01.662Z,2.60
2019-02-15T14:16:29.927Z,0.90
2019-02-15T14:18:57.873Z,0.53
2019-02-15T14:21:25.814Z,1.67
2019-02-15T14:23:53.977Z,0.97
2019-02-15T14:26:22.025Z,1.43
2019-02-15T14:28:49.961Z,0.90
2019-02-15T14:31:17.995Z,0.80
2019-02-15T14:33:46.002Z,0.83
2019-02-15T14:36:14.038Z,1.10
2019-02-15T14:38:42.253Z,0.87
2019-02-15T14:41:10.249Z,1.33
2019-02-15T14:43:38.326Z,0.83
2019-02-15T14:46:06.461Z,0.80
2019-02-15T14:48:34.488Z,0.90
2019-02-15T14:51:04.642Z,0.80
2019-02-15T14:53:32.576Z,0.70
2019-02-15T14:56:00.517Z,1.30
2019-02-15T14:58:28.553Z,0.70
2019-02-15T15:00:56.797Z,1.20
2019-02-15T15:03:24.932Z,0.90
2019-02-15T15:05:54.935Z,0.93
2019-02-15T15:08:23.085Z,1.17
2019-02-15T15:10:53.590Z,2.63
2019-02-15T15:13:22.969Z,1.00
2019-02-15T15:15:51.197Z,0.80
2019-02-15T15:18:19.571Z,1.77
2019-02-15T15:20:47.481Z,0.80
2019-02-15T15:23:15.716Z,1.23
2019-02-15T15:25:46.377Z,3.93
2019-02-15T15:28:14.388Z,0.60
2019-02-15T15:30:43.297Z,5.37
2019-02-15T15:33:11.332Z,5.60
2019-02-15T15:35:40.353Z,1.70
2019-02-15T15:38:12.681Z,0.80
2019-02-15T15:40:41.041Z,0.80
2019-02-15T15:43:09.829Z,1.37
2019-02-15T15:45:38.828Z,3.70
2019-02-15T15:48:07.139Z,1.17
2019-02-15T15:50:37.077Z,1.43
2019-02-15T15:53:07.806Z,0.87
2019-02-15T15:55:36.296Z,0.83
2019-02-15T15:58:05.052Z,0.70
2019-02-15T16:00:38.967Z,1.13
2019-02-15T16:03:04.394Z,1.10
2019-02-15T16:05:32.624Z,1.10
2019-02-15T16:08:01.028Z,2.97
2019-02-15T16:10:28.944Z,1.27
2019-02-15T16:12:57.274Z,0.87
2019-02-15T16:15:25.316Z,1.20
2019-02-15T16:17:53.489Z,0.93
2019-02-15T16:20:21.546Z,1.70
2019-02-15T16:22:49.446Z,1.10
2019-02-15T16:25:17.344Z,1.00
2019-02-15T16:27:45.369Z,12.07
2019-02-15T16:30:13.492Z,3.60
2019-02-15T16:32:41.648Z,5.60
2019-02-15T16:35:09.921Z,1.63
2019-02-15T16:37:37.828Z,5.90
2019-02-15T16:40:07.281Z,2.83
2019-02-15T16:42:35.301Z,2.00
2019-02-15T16:45:04.237Z,3.50
2019-02-15T16:47:32.306Z,5.47
2019-02-15T16:50:00.448Z,3.53
2019-02-15T16:52:28.592Z,7.30
2019-02-15T16:54:56.504Z,5.43
2019-02-15T16:57:24.500Z,5.97
2019-02-15T16:59:52.920Z,5.77
2019-02-15T17:02:20.849Z,3.40
2019-02-15T17:04:48.862Z,7.70
2019-02-15T17:07:17.168Z,6.20
2019-02-15T17:09:45.100Z,4.87
2019-02-15T17:12:13.165Z,6.07
2019-02-15T17:14:41.163Z,4.20
2019-02-15T17:17:09.175Z,6.77
2019-02-15T17:19:37.133Z,3.93
2019-02-15T17:22:05.684Z,4.70
2019-02-15T17:24:34.377Z,6.47
2019-02-15T17:27:02.970Z,4.40
2019-02-15T17:29:31.708Z,10.30
2019-02-15T17:32:00.104Z,13.30
2019-02-15T17:34:28.255Z,9.80
2019-02-15T17:36:56.725Z,6.07
2019-02-15T17:39:25.185Z,8.83
2019-02-15T17:41:53.332Z,5.60
2019-02-15T17:44:21.484Z,3.50
2019-02-15T17:46:49.774Z,6.07
2019-02-15T17:49:17.912Z,5.70
2019-02-15T17:51:45.996Z,4.40
2019-02-15T17:54:14.235Z,1.77
2019-02-15T17:56:42.866Z,4.13
2019-02-15T17:59:11.357Z,3.50
2019-02-15T18:01:39.866Z,2.40
2019-02-15T18:04:07.942Z,2.23
2019-02-15T18:06:36.668Z,1.97
2019-02-15T18:09:05.236Z,1.57
2019-02-15T18:11:33.512Z,1.53
2019-02-15T18:14:01.748Z,1.07
2019-02-15T18:16:30.371Z,1.77
2019-02-15T18:18:59.048Z,1.33
2019-02-15T18:21:27.296Z,1.33
2019-02-15T18:23:55.452Z,1.83
2019-02-15T18:26:23.931Z,4.93
2019-02-15T18:28:52.063Z,1.10
2019-02-15T18:31:20.206Z,1.77
2019-02-15T18:33:48.788Z,1.43
2019-02-15T18:36:17.048Z,1.67
2019-02-15T18:38:45.227Z,1.60
2019-02-15T18:41:13.950Z,2.00
2019-02-15T18:43:42.220Z,1.67
2019-02-15T18:46:10.450Z,1.60
2019-02-15T18:48:38.968Z,1.97
2019-02-15T18:51:07.341Z,3.03
2019-02-15T18:53:35.796Z,1.43
2019-02-15T18:56:04.043Z,1.57
2019-02-15T18:58:32.431Z,3.77
2019-02-15T19:01:00.814Z,1.60
2019-02-15T19:03:29.355Z,1.87
2019-02-15T19:05:57.754Z,1.50
2019-02-15T19:08:25.915Z,1.90
2019-02-15T19:10:54.777Z,1.93
2019-02-15T19:13:22.981Z,1.70
2019-02-15T19:15:51.706Z,1.83
2019-02-15T19:18:19.728Z,2.00
2019-02-15T19:20:47.705Z,2.30
2019-02-15T19:23:16.498Z,2.50
2019-02-15T19:25:44.545Z,1.60
2019-02-15T19:28:13.166Z,1.63
2019-02-15T19:30:41.710Z,2.00
2019-02-15T19:33:10.145Z,2.00
2019-02-15T19:35:38.211Z,2.53
2019-02-15T19:38:06.573Z,2.53
2019-02-15T19:40:35.282Z,2.47
2019-02-15T19:43:03.689Z,3.10
2019-02-15T19:45:32.472Z,2.27
2019-02-15T19:48:00.882Z,1.87
2019-02-15T19:50:29.236Z,1.80
2019-02-15T19:52:58.105Z,2.77
2019-02-15T19:55:26.398Z,1.93
2019-02-15T19:57:54.734Z,2.60
2019-02-15T20:00:23.341Z,2.53
2019-02-15T20:02:51.773Z,2.27
2019-02-15T20:05:19.798Z,1.93
2019-02-15T20:07:48.503Z,2.20
2019-02-15T20:10:17.941Z,2.00
2019-02-15T20:12:46.077Z,2.13
2019-02-15T20:15:14.402Z,2.53
2019-02-15T20:17:42.845Z,2.13
2019-02-15T20:20:11.329Z,2.17
2019-02-15T20:22:39.551Z,2.50
2019-02-15T20:25:08.433Z,4.23
2019-02-15T20:27:36.634Z,3.87
2019-02-15T20:30:07.075Z,3.20
2019-02-15T20:32:35.113Z,2.50
2019-02-15T20:35:03.264Z,2.70
2019-02-15T20:37:31.638Z,2.23
2019-02-15T20:39:59.658Z,2.10
2019-02-15T20:42:27.781Z,4.27
2019-02-15T20:44:55.818Z,2.03
2019-02-15T20:47:24.112Z,1.97
2019-02-15T20:49:58.074Z,2.43
2019-02-15T20:52:22.090Z,3.10
2019-02-15T20:54:50.034Z,2.53
2019-02-15T20:57:17.998Z,2.20
2019-02-15T20:59:46.081Z,2.20
2019-02-15T21:02:15.246Z,2.47
2019-02-15T21:04:43.274Z,4.50
2019-02-15T21:07:11.996Z,2.70
2019-02-15T21:09:40.399Z,2.40
2019-02-15T21:12:08.358Z,2.77
2019-02-15T21:14:36.281Z,3.33
2019-02-15T21:17:04.425Z,3.07
2019-02-15T21:19:32.500Z,2.90
2019-02-15T21:22:00.539Z,4.63
2019-02-15T21:24:28.465Z,2.70
2019-02-15T21:26:56.522Z,2.47
2019-02-15T21:29:25.491Z,2.40
2019-02-15T21:31:53.775Z,2.60
2019-02-15T21:34:21.766Z,3.13
2019-02-15T21:36:49.702Z,3.07
2019-02-15T21:39:17.639Z,2.83
2019-02-15T21:41:45.697Z,3.10
2019-02-15T21:44:13.994Z,2.60
2019-02-15T21:46:41.942Z,3.80
2019-02-15T21:49:09.901Z,2.87
2019-02-15T21:51:37.937Z,3.40
2019-02-15T21:54:06.164Z,2.30
2019-02-15T21:56:34.081Z,4.00
2019-02-15T21:59:02.178Z,3.60
2019-02-15T22:01:30.198Z,2.87
2019-02-15T22:03:58.245Z,3.03
2019-02-15T22:06:27.751Z,2.90
2019-02-15T22:08:56.029Z,3.00
2019-02-15T22:11:24.049Z,3.17
2019-02-15T22:13:52.584Z,4.93
2019-02-15T22:16:21.322Z,5.57
2019-02-15T22:18:49.619Z,3.23
2019-02-15T22:21:18.256Z,3.30
2019-02-15T22:23:46.786Z,5.30
2019-02-15T22:26:15.322Z,4.23
2019-02-15T22:28:43.868Z,3.63
2019-02-15T22:31:12.111Z,5.13
2019-02-15T22:33:40.977Z,5.93
2019-02-15T22:36:08.997Z,3.47
2019-02-15T22:38:37.277Z,4.27
2019-02-15T22:41:16.083Z,14.03
2019-02-15T22:43:44.937Z,3.40
2019-02-15T22:46:12.870Z,3.73
2019-02-15T22:48:41.393Z,5.43
2019-02-15T22:51:09.937Z,4.70
2019-02-15T22:53:38.222Z,4.47
2019-02-15T22:56:07.125Z,4.63
2019-02-15T22:58:35.838Z,4.73
2019-02-15T23:01:08.287Z,4.77
2019-02-15T23:03:36.446Z,3.73
2019-02-15T23:06:04.722Z,4.90
2019-02-15T23:08:33.261Z,4.90
2019-02-15T23:11:01.536Z,5.83
2019-02-15T23:13:29.770Z,4.67
2019-02-15T23:15:57.794Z,5.67
2019-02-15T23:18:25.835Z,4.37
2019-02-15T23:20:53.779Z,4.20
2019-02-15T23:23:21.829Z,5.40
2019-02-15T23:25:49.762Z,4.40
2019-02-15T23:28:17.805Z,4.07
2019-02-15T23:30:45.996Z,4.13
2019-02-15T23:33:14.129Z,4.20
2019-02-15T23:35:42.157Z,4.60
2019-02-15T23:38:10.282Z,4.20
2019-02-15T23:40:38.478Z,5.70
2019-02-15T23:43:06.533Z,4.30
2019-02-15T23:45:34.470Z,6.63
2019-02-15T23:48:02.649Z,4.40
2019-02-15T23:50:30.666Z,4.93
2019-02-15T23:52:58.689Z,7.50
2019-02-15T23:55:26.668Z,4.93
2019-02-15T23:57:54.848Z,5.07
